sensor_id;sensor_type;location;lat;lon;timestamp;pressure;altitude;pressure_sealevel;temperature;humidity
62436;BME280;48480;50.252;18.848;2022-11-10T00:00:38;98820.23;;;8.79;77.78
62436;BME280;48480;50.252;18.848;2022-11-10T00:03:05;98822.91;;;8.85;77.73
62436;BME280;48480;50.252;18.848;2022-11-10T00:05:31;98819.56;;;8.84;77.75
62436;BME280;48480;50.252;18.848;2022-11-10T00:08:00;98824.59;;;8.84;77.67
62436;BME280;48480;50.252;18.848;2022-11-10T00:10:26;98831.30;;;8.82;77.71
62436;BME280;48480;50.252;18.848;2022-11-10T00:12:51;98830.89;;;8.82;77.70
62436;BME280;48480;50.252;18.848;2022-11-10T00:15:18;98832.39;;;8.81;77.69
62436;BME280;48480;50.252;18.848;2022-11-10T00:18:03;98826.45;;;8.79;77.76
62436;BME280;48480;50.252;18.848;2022-11-10T00:20:30;98823.73;;;8.75;77.79
62436;BME280;48480;50.252;18.848;2022-11-10T00:22:55;98824.81;;;8.74;77.84
62436;BME280;48480;50.252;18.848;2022-11-10T00:25:22;98826.12;;;8.73;77.91
62436;BME280;48480;50.252;18.848;2022-11-10T00:27:47;98829.36;;;8.71;77.84
62436;BME280;48480;50.252;18.848;2022-11-10T00:30:13;98832.23;;;8.69;78.04
62436;BME280;48480;50.252;18.848;2022-11-10T00:32:39;98830.75;;;8.67;77.99
62436;BME280;48480;50.252;18.848;2022-11-10T00:35:04;98826.98;;;8.66;78.00
62436;BME280;48480;50.252;18.848;2022-11-10T00:37:30;98824.58;;;8.66;77.95
62436;BME280;48480;50.252;18.848;2022-11-10T00:39:55;98826.91;;;8.64;78.06
62436;BME280;48480;50.252;18.848;2022-11-10T00:42:21;98819.04;;;8.58;78.03
62436;BME280;48480;50.252;18.848;2022-11-10T00:44:46;98820.35;;;8.59;78.05
62436;BME280;48480;50.252;18.848;2022-11-10T00:47:12;98821.20;;;8.60;78.06
62436;BME280;48480;50.252;18.848;2022-11-10T00:49:37;98827.73;;;8.57;78.18
62436;BME280;48480;50.252;18.848;2022-11-10T00:52:03;98833.42;;;8.55;78.23
62436;BME280;48480;50.252;18.848;2022-11-10T00:54:28;98834.41;;;8.54;78.24
62436;BME280;48480;50.252;18.848;2022-11-10T00:56:54;98840.52;;;8.52;78.23
62436;BME280;48480;50.252;18.848;2022-11-10T00:59:19;98838.55;;;8.52;78.33
62436;BME280;48480;50.252;18.848;2022-11-10T01:01:44;98845.42;;;8.50;78.31
62436;BME280;48480;50.252;18.848;2022-11-10T01:04:10;98847.20;;;8.48;78.46
62436;BME280;48480;50.252;18.848;2022-11-10T01:06:35;98842.86;;;8.43;78.52
62436;BME280;48480;50.252;18.848;2022-11-10T01:09:01;98848.66;;;8.44;78.49
62436;BME280;48480;50.252;18.848;2022-11-10T01:11:27;98841.14;;;8.36;78.60
62436;BME280;48480;50.252;18.848;2022-11-10T01:13:54;98853.33;;;8.38;78.68
62436;BME280;48480;50.252;18.848;2022-11-10T01:16:28;98858.50;;;8.35;78.84
62436;BME280;48480;50.252;18.848;2022-11-10T01:18:56;98861.85;;;8.34;78.98
62436;BME280;48480;50.252;18.848;2022-11-10T01:21:24;98868.05;;;8.33;79.06
62436;BME280;48480;50.252;18.848;2022-11-10T01:23:50;98865.71;;;8.32;79.07
62436;BME280;48480;50.252;18.848;2022-11-10T01:26:17;98865.38;;;8.33;79.05
62436;BME280;48480;50.252;18.848;2022-11-10T01:28:43;98863.07;;;8.34;79.16
62436;BME280;48480;50.252;18.848;2022-11-10T01:31:12;98862.84;;;8.35;79.13
62436;BME280;48480;50.252;18.848;2022-11-10T01:33:37;98848.55;;;8.26;79.09
62436;BME280;48480;50.252;18.848;2022-11-10T01:36:04;98864.80;;;8.36;79.07
62436;BME280;48480;50.252;18.848;2022-11-10T01:38:33;98863.63;;;8.36;78.94
62436;BME280;48480;50.252;18.848;2022-11-10T01:40:59;98865.63;;;8.34;79.13
62436;BME280;48480;50.252;18.848;2022-11-10T01:43:25;98867.20;;;8.34;79.08
62436;BME280;48480;50.252;18.848;2022-11-10T01:45:59;98866.17;;;8.34;79.19
62436;BME280;48480;50.252;18.848;2022-11-10T01:51:23;98863.99;;;8.33;79.14
62436;BME280;48480;50.252;18.848;2022-11-10T01:54:07;98870.47;;;8.33;79.19
62436;BME280;48480;50.252;18.848;2022-11-10T01:56:38;98874.17;;;8.31;79.26
62436;BME280;48480;50.252;18.848;2022-11-10T01:59:13;98874.59;;;8.29;79.40
62436;BME280;48480;50.252;18.848;2022-11-10T02:01:40;98873.94;;;8.23;79.50
62436;BME280;48480;50.252;18.848;2022-11-10T02:04:08;98880.44;;;8.27;79.48
62436;BME280;48480;50.252;18.848;2022-11-10T02:06:38;98880.92;;;8.26;79.52
62436;BME280;48480;50.252;18.848;2022-11-10T02:09:05;98882.20;;;8.27;79.54
62436;BME280;48480;50.252;18.848;2022-11-10T02:11:31;98882.15;;;8.26;79.59
62436;BME280;48480;50.252;18.848;2022-11-10T02:13:58;98882.86;;;8.26;79.64
62436;BME280;48480;50.252;18.848;2022-11-10T02:16:24;98887.33;;;8.25;79.80
62436;BME280;48480;50.252;18.848;2022-11-10T02:18:50;98893.73;;;8.25;79.85
62436;BME280;48480;50.252;18.848;2022-11-10T02:21:16;98901.48;;;8.24;79.87
62436;BME280;48480;50.252;18.848;2022-11-10T02:26:13;98897.58;;;8.25;79.95
62436;BME280;48480;50.252;18.848;2022-11-10T02:28:40;98905.06;;;8.25;80.00
62436;BME280;48480;50.252;18.848;2022-11-10T02:31:05;98902.28;;;8.25;80.07
62436;BME280;48480;50.252;18.848;2022-11-10T02:33:33;98901.27;;;8.24;80.14
62436;BME280;48480;50.252;18.848;2022-11-10T02:35:59;98902.42;;;8.26;80.08
62436;BME280;48480;50.252;18.848;2022-11-10T02:38:24;98901.73;;;8.26;80.20
62436;BME280;48480;50.252;18.848;2022-11-10T02:40:50;98904.91;;;8.31;80.11
62436;BME280;48480;50.252;18.848;2022-11-10T02:43:17;98891.45;;;8.27;80.17
62436;BME280;48480;50.252;18.848;2022-11-10T02:45:43;98899.23;;;8.36;80.12
62436;BME280;48480;50.252;18.848;2022-11-10T02:48:09;98899.31;;;8.37;80.14
62436;BME280;48480;50.252;18.848;2022-11-10T02:50:35;98905.39;;;8.39;80.20
62436;BME280;48480;50.252;18.848;2022-11-10T02:53:01;98908.75;;;8.41;80.13
62436;BME280;48480;50.252;18.848;2022-11-10T02:55:27;98908.99;;;8.43;80.17
62436;BME280;48480;50.252;18.848;2022-11-10T02:57:52;98914.80;;;8.45;80.16
62436;BME280;48480;50.252;18.848;2022-11-10T03:00:18;98905.46;;;8.47;80.15
62436;BME280;48480;50.252;18.848;2022-11-10T03:02:44;98907.42;;;8.49;80.22
62436;BME280;48480;50.252;18.848;2022-11-10T03:05:10;98914.28;;;8.51;80.14
62436;BME280;48480;50.252;18.848;2022-11-10T03:07:37;98922.10;;;8.51;80.17
62436;BME280;48480;50.252;18.848;2022-11-10T03:10:03;98920.22;;;8.51;80.33
62436;BME280;48480;50.252;18.848;2022-11-10T03:12:29;98920.84;;;8.53;80.34
62436;BME280;48480;50.252;18.848;2022-11-10T03:14:54;98921.11;;;8.55;80.36
62436;BME280;48480;50.252;18.848;2022-11-10T03:17:20;98923.17;;;8.57;80.36
62436;BME280;48480;50.252;18.848;2022-11-10T03:19:45;98929.55;;;8.60;80.38
62436;BME280;48480;50.252;18.848;2022-11-10T03:22:11;98924.36;;;8.60;80.36
62436;BME280;48480;50.252;18.848;2022-11-10T03:24:36;98930.41;;;8.64;80.48
62436;BME280;48480;50.252;18.848;2022-11-10T03:27:01;98931.77;;;8.66;80.37
62436;BME280;48480;50.252;18.848;2022-11-10T03:29:27;98934.23;;;8.69;80.40
62436;BME280;48480;50.252;18.848;2022-11-10T03:31:52;98935.02;;;8.70;80.40
62436;BME280;48480;50.252;18.848;2022-11-10T03:34:18;98933.86;;;8.73;80.30
62436;BME280;48480;50.252;18.848;2022-11-10T03:36:43;98932.76;;;8.75;80.42
62436;BME280;48480;50.252;18.848;2022-11-10T03:39:09;98938.64;;;8.79;80.36
62436;BME280;48480;50.252;18.848;2022-11-10T03:41:34;98939.61;;;8.81;80.38
62436;BME280;48480;50.252;18.848;2022-11-10T03:44:00;98941.09;;;8.83;80.34
62436;BME280;48480;50.252;18.848;2022-11-10T03:46:25;98943.03;;;8.85;80.44
62436;BME280;48480;50.252;18.848;2022-11-10T03:48:51;98944.08;;;8.87;80.38
62436;BME280;48480;50.252;18.848;2022-11-10T03:51:16;98947.61;;;8.89;80.30
62436;BME280;48480;50.252;18.848;2022-11-10T03:53:41;98939.31;;;8.90;80.37
62436;BME280;48480;50.252;18.848;2022-11-10T03:56:07;98943.45;;;8.92;80.39
62436;BME280;48480;50.252;18.848;2022-11-10T03:58:32;98935.22;;;8.88;80.38
62436;BME280;48480;50.252;18.848;2022-11-10T04:00:58;98947.85;;;8.95;80.36
62436;BME280;48480;50.252;18.848;2022-11-10T04:03:23;98952.02;;;8.95;80.38
62436;BME280;48480;50.252;18.848;2022-11-10T04:05:49;98958.05;;;8.95;80.49
62436;BME280;48480;50.252;18.848;2022-11-10T04:08:33;98951.83;;;8.98;80.49
62436;BME280;48480;50.252;18.848;2022-11-10T04:11:19;98950.99;;;8.99;80.45
62436;BME280;48480;50.252;18.848;2022-11-10T04:14:16;98953.92;;;9.00;80.50
62436;BME280;48480;50.252;18.848;2022-11-10T04:17:01;98961.18;;;9.01;80.51
62436;BME280;48480;50.252;18.848;2022-11-10T04:19:27;98964.98;;;9.02;80.51
62436;BME280;48480;50.252;18.848;2022-11-10T04:21:53;98968.75;;;9.03;80.50
62436;BME280;48480;50.252;18.848;2022-11-10T04:24:18;98966.70;;;9.05;80.51
62436;BME280;48480;50.252;18.848;2022-11-10T04:26:44;98974.65;;;9.06;80.53
62436;BME280;48480;50.252;18.848;2022-11-10T04:29:12;98981.89;;;9.08;80.50
62436;BME280;48480;50.252;18.848;2022-11-10T04:31:39;98978.41;;;9.09;80.45
62436;BME280;48480;50.252;18.848;2022-11-10T04:34:07;98986.49;;;9.11;80.52
62436;BME280;48480;50.252;18.848;2022-11-10T04:36:35;98983.84;;;9.13;80.51
62436;BME280;48480;50.252;18.848;2022-11-10T04:39:01;98989.92;;;9.14;80.57
62436;BME280;48480;50.252;18.848;2022-11-10T04:41:28;98984.63;;;9.12;80.51
62436;BME280;48480;50.252;18.848;2022-11-10T04:43:55;98987.55;;;9.12;80.59
62436;BME280;48480;50.252;18.848;2022-11-10T04:48:48;98994.63;;;9.12;80.68
62436;BME280;48480;50.252;18.848;2022-11-10T04:51:16;99004.19;;;9.09;80.86
62436;BME280;48480;50.252;18.848;2022-11-10T04:53:42;99011.03;;;9.10;80.93
62436;BME280;48480;50.252;18.848;2022-11-10T04:56:20;99009.06;;;9.10;81.00
62436;BME280;48480;50.252;18.848;2022-11-10T04:58:45;99012.09;;;9.11;81.06
62436;BME280;48480;50.252;18.848;2022-11-10T05:01:12;99011.16;;;9.12;81.12
62436;BME280;48480;50.252;18.848;2022-11-10T05:03:39;99012.60;;;9.12;81.09
62436;BME280;48480;50.252;18.848;2022-11-10T05:06:05;99008.19;;;9.11;81.15
62436;BME280;48480;50.252;18.848;2022-11-10T05:08:31;99012.65;;;9.12;81.15
62436;BME280;48480;50.252;18.848;2022-11-10T05:10:56;99011.36;;;9.13;81.20
62436;BME280;48480;50.252;18.848;2022-11-10T05:13:22;99016.77;;;9.13;81.17
62436;BME280;48480;50.252;18.848;2022-11-10T05:15:47;99019.21;;;9.14;81.12
62436;BME280;48480;50.252;18.848;2022-11-10T05:18:12;99017.90;;;9.16;81.17
62436;BME280;48480;50.252;18.848;2022-11-10T05:20:38;99021.15;;;9.21;81.15
62436;BME280;48480;50.252;18.848;2022-11-10T05:23:03;99020.05;;;9.25;81.11
62436;BME280;48480;50.252;18.848;2022-11-10T05:25:48;99027.52;;;9.30;81.01
62436;BME280;48480;50.252;18.848;2022-11-10T05:28:13;99026.11;;;9.28;80.94
62436;BME280;48480;50.252;18.848;2022-11-10T05:30:40;99041.10;;;9.35;80.89
62436;BME280;48480;50.252;18.848;2022-11-10T05:33:06;99045.31;;;9.36;81.01
62436;BME280;48480;50.252;18.848;2022-11-10T05:35:33;99043.52;;;9.38;81.13
62436;BME280;48480;50.252;18.848;2022-11-10T05:37:59;99047.70;;;9.38;81.13
62436;BME280;48480;50.252;18.848;2022-11-10T05:40:25;99049.21;;;9.37;81.30
62436;BME280;48480;50.252;18.848;2022-11-10T05:42:51;99053.73;;;9.38;81.48
62436;BME280;48480;50.252;18.848;2022-11-10T05:45:22;99057.27;;;9.38;81.36
62436;BME280;48480;50.252;18.848;2022-11-10T05:47:48;99058.02;;;9.39;81.64
62436;BME280;48480;50.252;18.848;2022-11-10T05:50:15;99064.24;;;9.38;81.61
62436;BME280;48480;50.252;18.848;2022-11-10T05:52:47;99071.88;;;9.39;81.74
62436;BME280;48480;50.252;18.848;2022-11-10T05:55:13;99079.13;;;9.39;81.84
62436;BME280;48480;50.252;18.848;2022-11-10T05:57:44;99086.91;;;9.37;82.07
62436;BME280;48480;50.252;18.848;2022-11-10T06:00:11;99089.50;;;9.36;82.11
62436;BME280;48480;50.252;18.848;2022-11-10T06:02:37;99095.95;;;9.33;82.23
62436;BME280;48480;50.252;18.848;2022-11-10T06:05:03;99100.27;;;9.32;82.31
62436;BME280;48480;50.252;18.848;2022-11-10T06:07:29;99107.05;;;9.32;82.48
62436;BME280;48480;50.252;18.848;2022-11-10T06:09:54;99107.23;;;9.31;82.68
62436;BME280;48480;50.252;18.848;2022-11-10T06:12:19;99107.70;;;9.32;82.85
62436;BME280;48480;50.252;18.848;2022-11-10T06:14:46;99111.34;;;9.32;82.95
62436;BME280;48480;50.252;18.848;2022-11-10T06:17:12;99113.60;;;9.31;83.02
62436;BME280;48480;50.252;18.848;2022-11-10T06:19:38;99113.58;;;9.29;83.14
62436;BME280;48480;50.252;18.848;2022-11-10T06:22:03;99121.48;;;9.30;83.18
62436;BME280;48480;50.252;18.848;2022-11-10T06:24:28;99126.14;;;9.30;83.36
62436;BME280;48480;50.252;18.848;2022-11-10T06:26:54;99127.66;;;9.29;83.54
62436;BME280;48480;50.252;18.848;2022-11-10T06:29:19;99129.79;;;9.26;83.62
62436;BME280;48480;50.252;18.848;2022-11-10T06:31:44;99133.15;;;9.24;83.86
62436;BME280;48480;50.252;18.848;2022-11-10T06:34:10;99134.77;;;9.23;83.96
62436;BME280;48480;50.252;18.848;2022-11-10T06:36:35;99136.67;;;9.21;84.13
62436;BME280;48480;50.252;18.848;2022-11-10T06:39:03;99141.02;;;9.21;84.27
62436;BME280;48480;50.252;18.848;2022-11-10T06:41:28;99151.07;;;9.21;84.36
62436;BME280;48480;50.252;18.848;2022-11-10T06:43:54;99152.55;;;9.22;84.54
62436;BME280;48480;50.252;18.848;2022-11-10T06:46:20;99161.80;;;9.23;84.68
62436;BME280;48480;50.252;18.848;2022-11-10T06:48:45;99159.77;;;9.23;84.69
62436;BME280;48480;50.252;18.848;2022-11-10T06:51:11;99159.95;;;9.23;84.77
62436;BME280;48480;50.252;18.848;2022-11-10T06:53:36;99158.48;;;9.23;84.92
62436;BME280;48480;50.252;18.848;2022-11-10T06:56:01;99163.79;;;9.23;84.94
62436;BME280;48480;50.252;18.848;2022-11-10T06:58:27;99171.13;;;9.23;85.02
62436;BME280;48480;50.252;18.848;2022-11-10T07:00:52;99176.36;;;9.23;85.07
62436;BME280;48480;50.252;18.848;2022-11-10T07:03:18;99183.64;;;9.24;85.10
62436;BME280;48480;50.252;18.848;2022-11-10T07:05:43;99188.48;;;9.25;85.33
62436;BME280;48480;50.252;18.848;2022-11-10T07:08:12;99189.91;;;9.26;85.35
62436;BME280;48480;50.252;18.848;2022-11-10T07:10:41;99194.08;;;9.27;85.30
62436;BME280;48480;50.252;18.848;2022-11-10T07:13:08;99197.73;;;9.27;85.42
62436;BME280;48480;50.252;18.848;2022-11-10T07:15:34;99200.14;;;9.27;85.62
62436;BME280;48480;50.252;18.848;2022-11-10T07:18:01;99202.30;;;9.26;85.56
62436;BME280;48480;50.252;18.848;2022-11-10T07:20:32;99202.37;;;9.27;85.68
62436;BME280;48480;50.252;18.848;2022-11-10T07:23:03;99205.13;;;9.30;85.78
62436;BME280;48480;50.252;18.848;2022-11-10T07:25:30;99199.92;;;9.30;85.82
62436;BME280;48480;50.252;18.848;2022-11-10T07:27:58;99196.40;;;9.27;85.90
62436;BME280;48480;50.252;18.848;2022-11-10T07:30:26;99207.34;;;9.28;85.97
62436;BME280;48480;50.252;18.848;2022-11-10T07:33:09;99218.34;;;9.27;86.13
62436;BME280;48480;50.252;18.848;2022-11-10T07:35:35;99225.48;;;9.25;86.28
62436;BME280;48480;50.252;18.848;2022-11-10T07:38:03;99230.27;;;9.24;86.26
62436;BME280;48480;50.252;18.848;2022-11-10T07:40:29;99232.38;;;9.26;86.48
62436;BME280;48480;50.252;18.848;2022-11-10T07:42:54;99241.16;;;9.31;86.43
62436;BME280;48480;50.252;18.848;2022-11-10T07:45:20;99243.84;;;9.34;86.38
62436;BME280;48480;50.252;18.848;2022-11-10T07:47:45;99247.64;;;9.36;86.30
62436;BME280;48480;50.252;18.848;2022-11-10T07:50:11;99248.16;;;9.36;86.35
62436;BME280;48480;50.252;18.848;2022-11-10T07:52:36;99250.67;;;9.35;86.39
62436;BME280;48480;50.252;18.848;2022-11-10T07:55:04;99252.54;;;9.37;86.41
62436;BME280;48480;50.252;18.848;2022-11-10T07:57:29;99256.79;;;9.39;86.36
62436;BME280;48480;50.252;18.848;2022-11-10T07:59:55;99265.23;;;9.42;86.49
62436;BME280;48480;50.252;18.848;2022-11-10T08:02:20;99268.80;;;9.44;86.38
62436;BME280;48480;50.252;18.848;2022-11-10T08:04:46;99267.63;;;9.46;86.46
62436;BME280;48480;50.252;18.848;2022-11-10T08:07:11;99268.53;;;9.47;86.38
62436;BME280;48480;50.252;18.848;2022-11-10T08:09:37;99269.05;;;9.48;86.46
62436;BME280;48480;50.252;18.848;2022-11-10T08:12:03;99266.02;;;9.50;86.39
62436;BME280;48480;50.252;18.848;2022-11-10T08:14:28;99272.78;;;9.54;86.48
62436;BME280;48480;50.252;18.848;2022-11-10T08:16:54;99277.89;;;9.56;86.40
62436;BME280;48480;50.252;18.848;2022-11-10T08:19:19;99281.63;;;9.57;86.39
62436;BME280;48480;50.252;18.848;2022-11-10T08:21:44;99277.65;;;9.59;86.25
62436;BME280;48480;50.252;18.848;2022-11-10T08:24:10;99286.42;;;9.59;86.45
62436;BME280;48480;50.252;18.848;2022-11-10T08:26:36;99292.60;;;9.63;86.52
62436;BME280;48480;50.252;18.848;2022-11-10T08:29:01;99296.63;;;9.66;86.51
62436;BME280;48480;50.252;18.848;2022-11-10T08:31:26;99295.50;;;9.70;86.43
62436;BME280;48480;50.252;18.848;2022-11-10T08:33:52;99300.94;;;9.72;86.40
62436;BME280;48480;50.252;18.848;2022-11-10T08:36:17;99305.39;;;9.75;86.35
62436;BME280;48480;50.252;18.848;2022-11-10T08:38:43;99308.56;;;9.79;86.48
62436;BME280;48480;50.252;18.848;2022-11-10T08:41:08;99308.67;;;9.83;86.40
62436;BME280;48480;50.252;18.848;2022-11-10T08:43:34;99314.58;;;9.85;86.36
62436;BME280;48480;50.252;18.848;2022-11-10T08:45:59;99318.30;;;9.88;86.23
62436;BME280;48480;50.252;18.848;2022-11-10T08:48:26;99321.73;;;9.91;86.15
62436;BME280;48480;50.252;18.848;2022-11-10T08:50:51;99328.73;;;9.93;86.10
62436;BME280;48480;50.252;18.848;2022-11-10T08:53:21;99330.98;;;9.93;85.92
62436;BME280;48480;50.252;18.848;2022-11-10T08:55:48;99331.83;;;9.94;85.97
62436;BME280;48480;50.252;18.848;2022-11-10T08:58:15;99335.41;;;9.94;85.90
62436;BME280;48480;50.252;18.848;2022-11-10T09:00:41;99337.84;;;9.93;85.82
62436;BME280;48480;50.252;18.848;2022-11-10T09:03:14;99342.92;;;9.94;85.84
62436;BME280;48480;50.252;18.848;2022-11-10T09:05:40;99347.20;;;9.95;85.75
62436;BME280;48480;50.252;18.848;2022-11-10T09:08:07;99346.96;;;9.97;85.75
62436;BME280;48480;50.252;18.848;2022-11-10T09:10:36;99349.53;;;9.97;85.82
62436;BME280;48480;50.252;18.848;2022-11-10T09:13:03;99355.96;;;10.01;85.86
62436;BME280;48480;50.252;18.848;2022-11-10T09:15:29;99358.30;;;10.07;85.95
62436;BME280;48480;50.252;18.848;2022-11-10T09:17:59;99364.30;;;10.11;85.98
62436;BME280;48480;50.252;18.848;2022-11-10T09:20:30;99366.17;;;10.15;85.74
62436;BME280;48480;50.252;18.848;2022-11-10T09:22:56;99356.30;;;10.11;85.54
62436;BME280;48480;50.252;18.848;2022-11-10T09:25:22;99360.40;;;10.17;85.53
62436;BME280;48480;50.252;18.848;2022-11-10T09:27:47;99367.71;;;10.24;85.44
62436;BME280;48480;50.252;18.848;2022-11-10T09:30:13;99369.05;;;10.24;85.30
62436;BME280;48480;50.252;18.848;2022-11-10T09:32:39;99373.50;;;10.24;85.39
62436;BME280;48480;50.252;18.848;2022-11-10T09:35:05;99376.08;;;10.27;85.52
62436;BME280;48480;50.252;18.848;2022-11-10T09:37:31;99383.82;;;10.31;85.41
62436;BME280;48480;50.252;18.848;2022-11-10T09:39:56;99386.96;;;10.33;85.36
62436;BME280;48480;50.252;18.848;2022-11-10T09:42:26;99385.29;;;10.34;85.37
62436;BME280;48480;50.252;18.848;2022-11-10T09:45:06;99388.15;;;10.36;85.36
62436;BME280;48480;50.252;18.848;2022-11-10T09:47:46;99393.96;;;10.39;85.28
62436;BME280;48480;50.252;18.848;2022-11-10T09:50:18;99393.67;;;10.44;85.32
62436;BME280;48480;50.252;18.848;2022-11-10T09:52:48;99398.38;;;10.48;85.14
62436;BME280;48480;50.252;18.848;2022-11-10T09:55:29;99396.56;;;10.47;85.11
62436;BME280;48480;50.252;18.848;2022-11-10T09:57:57;99401.52;;;10.61;85.10
62436;BME280;48480;50.252;18.848;2022-11-10T10:00:23;99404.02;;;10.66;84.95
62436;BME280;48480;50.252;18.848;2022-11-10T10:02:53;99408.47;;;10.70;84.72
62436;BME280;48480;50.252;18.848;2022-11-10T10:14:14;99426.96;;;10.84;84.35
62436;BME280;48480;50.252;18.848;2022-11-10T10:24:54;99429.79;;;10.85;84.31
62436;BME280;48480;50.252;18.848;2022-11-10T10:27:24;99433.02;;;10.88;84.26
62436;BME280;48480;50.252;18.848;2022-11-10T10:29:52;99437.69;;;10.92;84.05
62436;BME280;48480;50.252;18.848;2022-11-10T10:32:18;99440.27;;;10.94;84.08
62436;BME280;48480;50.252;18.848;2022-11-10T10:34:46;99440.11;;;10.94;84.10
62436;BME280;48480;50.252;18.848;2022-11-10T10:37:26;99439.48;;;11.01;84.02
62436;BME280;48480;50.252;18.848;2022-11-10T10:39:56;99437.98;;;11.06;83.81
62436;BME280;48480;50.252;18.848;2022-11-10T10:42:28;99437.06;;;11.10;83.74
62436;BME280;48480;50.252;18.848;2022-11-10T10:45:11;99438.79;;;11.20;83.74
62436;BME280;48480;50.252;18.848;2022-11-10T10:47:38;99444.05;;;11.29;83.37
62436;BME280;48480;50.252;18.848;2022-11-10T10:50:33;99444.95;;;11.35;83.20
62436;BME280;48480;50.252;18.848;2022-11-10T10:53:16;99446.85;;;11.44;82.72
62436;BME280;48480;50.252;18.848;2022-11-10T10:58:21;99449.23;;;11.52;82.27
62436;BME280;48480;50.252;18.848;2022-11-10T11:01:05;99449.93;;;11.51;82.09
62436;BME280;48480;50.252;18.848;2022-11-10T11:03:49;99455.74;;;11.51;82.12
62436;BME280;48480;50.252;18.848;2022-11-10T11:11:18;99457.38;;;11.50;82.12
62436;BME280;48480;50.252;18.848;2022-11-10T11:13:48;99456.60;;;11.51;82.08
62436;BME280;48480;50.252;18.848;2022-11-10T11:16:13;99459.31;;;11.58;82.37
62436;BME280;48480;50.252;18.848;2022-11-10T11:18:39;99458.28;;;11.62;82.11
62436;BME280;48480;50.252;18.848;2022-11-10T11:27:31;99461.02;;;11.76;82.15
62436;BME280;48480;50.252;18.848;2022-11-10T11:30:13;99460.98;;;11.79;81.58
62436;BME280;48480;50.252;18.848;2022-11-10T11:35:43;99465.67;;;11.87;81.23
62436;BME280;48480;50.252;18.848;2022-11-10T11:43:50;99471.64;;;11.84;80.93
62436;BME280;48480;50.252;18.848;2022-11-10T11:52:10;99468.31;;;12.01;80.94
62436;BME280;48480;50.252;18.848;2022-11-10T12:05:36;99472.11;;;12.16;79.78
62436;BME280;48480;50.252;18.848;2022-11-10T12:08:18;99471.84;;;12.31;79.48
62436;BME280;48480;50.252;18.848;2022-11-10T12:17:15;99470.19;;;12.67;78.01
62436;BME280;48480;50.252;18.848;2022-11-10T12:20:02;99472.39;;;12.86;77.35
62436;BME280;48480;50.252;18.848;2022-11-10T12:22:59;99475.64;;;12.97;76.50
62436;BME280;48480;50.252;18.848;2022-11-10T12:28:23;99473.81;;;13.14;75.73
62436;BME280;48480;50.252;18.848;2022-11-10T12:30:51;99475.88;;;13.20;75.22
62436;BME280;48480;50.252;18.848;2022-11-10T12:35:53;99483.09;;;13.33;74.39
62436;BME280;48480;50.252;18.848;2022-11-10T12:38:47;99486.86;;;13.39;74.03
62436;BME280;48480;50.252;18.848;2022-11-10T12:41:19;99485.91;;;13.44;73.75
62436;BME280;48480;50.252;18.848;2022-11-10T12:46:48;99495.26;;;13.37;72.97
62436;BME280;48480;50.252;18.848;2022-11-10T12:49:22;99495.52;;;13.33;73.41
62436;BME280;48480;50.252;18.848;2022-11-10T12:54:24;99497.08;;;13.21;73.31
62436;BME280;48480;50.252;18.848;2022-11-10T12:56:56;99508.18;;;13.16;73.38
62436;BME280;48480;50.252;18.848;2022-11-10T12:59:26;99514.08;;;13.14;73.67
62436;BME280;48480;50.252;18.848;2022-11-10T13:02:38;99507.70;;;13.10;73.07
62436;BME280;48480;50.252;18.848;2022-11-10T13:07:49;99509.73;;;13.04;73.11
62436;BME280;48480;50.252;18.848;2022-11-10T13:10:28;99511.25;;;13.05;73.00
62436;BME280;48480;50.252;18.848;2022-11-10T13:17:59;99517.01;;;13.04;71.23
62436;BME280;48480;50.252;18.848;2022-11-10T13:25:58;99523.59;;;12.92;69.55
62436;BME280;48480;50.252;18.848;2022-11-10T13:41:48;99531.19;;;13.12;68.66
62436;BME280;48480;50.252;18.848;2022-11-10T13:47:08;99538.90;;;13.21;68.30
62436;BME280;48480;50.252;18.848;2022-11-10T13:52:56;99553.56;;;13.25;67.57
62436;BME280;48480;50.252;18.848;2022-11-10T13:55:33;99557.40;;;13.20;67.84
62436;BME280;48480;50.252;18.848;2022-11-10T13:58:07;99562.03;;;13.16;67.57
62436;BME280;48480;50.252;18.848;2022-11-10T14:00:38;99568.39;;;13.09;67.38
62436;BME280;48480;50.252;18.848;2022-11-10T14:03:06;99567.60;;;12.99;67.67
62436;BME280;48480;50.252;18.848;2022-11-10T14:08:11;99575.34;;;12.92;67.92
62436;BME280;48480;50.252;18.848;2022-11-10T14:10:47;99575.80;;;12.91;68.11
62436;BME280;48480;50.252;18.848;2022-11-10T14:15:46;99580.40;;;12.89;68.82
62436;BME280;48480;50.252;18.848;2022-11-10T14:18:30;99584.82;;;12.90;69.23
62436;BME280;48480;50.252;18.848;2022-11-10T14:21:04;99586.85;;;12.87;69.15
62436;BME280;48480;50.252;18.848;2022-11-10T14:23:44;99587.20;;;12.83;68.82
62436;BME280;48480;50.252;18.848;2022-11-10T14:26:47;99585.94;;;12.77;68.74
62436;BME280;48480;50.252;18.848;2022-11-10T14:32:00;99597.00;;;12.69;68.89
62436;BME280;48480;50.252;18.848;2022-11-10T14:34:26;99597.89;;;12.65;68.68
62436;BME280;48480;50.252;18.848;2022-11-10T14:36:56;99601.95;;;12.61;68.39
62436;BME280;48480;50.252;18.848;2022-11-10T14:39:28;99611.41;;;12.56;68.03
62436;BME280;48480;50.252;18.848;2022-11-10T14:41:59;99616.64;;;12.50;67.54
62436;BME280;48480;50.252;18.848;2022-11-10T14:44:27;99618.77;;;12.43;67.73
62436;BME280;48480;50.252;18.848;2022-11-10T14:46:54;99624.06;;;12.39;68.03
62436;BME280;48480;50.252;18.848;2022-11-10T14:49:25;99620.91;;;12.35;68.23
62436;BME280;48480;50.252;18.848;2022-11-10T14:51:55;99631.00;;;12.34;68.07
62436;BME280;48480;50.252;18.848;2022-11-10T14:54:25;99628.61;;;12.33;68.34
62436;BME280;48480;50.252;18.848;2022-11-10T14:56:53;99626.94;;;12.32;68.40
62436;BME280;48480;50.252;18.848;2022-11-10T14:59:20;99632.64;;;12.32;68.39
62436;BME280;48480;50.252;18.848;2022-11-10T15:01:52;99631.77;;;12.33;68.53
62436;BME280;48480;50.252;18.848;2022-11-10T15:04:23;99640.06;;;12.33;68.56
62436;BME280;48480;50.252;18.848;2022-11-10T15:06:50;99638.30;;;12.30;68.82